Time;durP1;ratioP1;P1;durP2;ratioP2;P2;SDS_P1;SDS_P2;PMS_P1;PMS_P2;Temp;Humidity;BMP_temperature;BMP_pressure;BME280_temperature;BME280_humidity;BME280_pressure;Samples;Min_cycle;Max_cycle;Signal;HPM_P1;HPM_P2
2023/04/18 00:02:05;;;;;;;;;;;9.10;99.90;;;;;;5067080;28;19924;-85
2023/04/18 00:04:32;;;;;;;;;;;9.10;99.90;;;;;;5085083;28;19924;-85
2023/04/18 00:06:59;;;;;;;;;;;9.10;99.90;;;;;;5085156;28;19924;-84
2023/04/18 00:09:26;;;;;;;;;;;9.10;99.90;;;;;;5085170;28;19955;-84
2023/04/18 00:11:53;;;;;;;;;;;9.00;99.90;;;;;;5078755;28;19928;-88
2023/04/18 00:14:19;;;;;;;;;;;9.00;99.90;;;;;;5061915;28;20239;-85
2023/04/18 00:16:46;;;;;;;;;;;9.00;99.90;;;;;;5095158;28;19924;-89
2023/04/18 00:19:13;;;;;;;;;;;9.00;99.90;;;;;;5078115;28;19977;-85
2023/04/18 00:21:43;;;;;;;;;;;9.00;99.90;;;;;;5077329;28;19928;-87
2023/04/18 00:26:57;;;;;;;;;;;9.00;99.90;;;;;;5078115;28;20272;-88
2023/04/18 00:29:24;;;;;;;;;;;8.90;99.90;;;;;;5076020;28;19925;-84
2023/04/18 00:31:51;;;;;;;;;;;8.80;99.90;;;;;;5077569;28;19924;-88
2023/04/18 00:37:06;;;;;;;;;;;8.80;99.90;;;;;;5077181;28;19932;-87
2023/04/18 00:39:32;;;;;;;;;;;8.80;99.90;;;;;;5078030;28;19924;-86
2023/04/18 00:42:01;;;;;;;;;;;8.90;99.90;;;;;;5060739;28;20262;-85
2023/04/18 00:44:28;;;;;;;;;;;8.90;99.90;;;;;;5078174;28;19935;-87
2023/04/18 00:46:56;;;;;;;;;;;8.90;99.90;;;;;;5077560;28;19936;-85
2023/04/18 00:49:23;;;;;;;;;;;8.80;99.90;;;;;;5094963;28;19924;-88
2023/04/18 00:51:50;;;;;;;;;;;8.90;99.90;;;;;;5095680;28;19931;-87
2023/04/18 00:54:16;;;;;;;;;;;8.90;99.90;;;;;;5077761;28;19924;-86
2023/04/18 00:56:44;;;;;;;;;;;8.90;99.90;;;;;;5076753;28;19924;-86
2023/04/18 00:59:10;;;;;;;;;;;8.90;99.90;;;;;;5077851;28;19924;-87
2023/04/18 01:01:38;;;;;;;;;;;8.90;99.90;;;;;;5060538;28;20006;-89
2023/04/18 01:04:08;;;;;;;;;;;9.00;99.90;;;;;;5077773;28;19924;-87
2023/04/18 01:06:35;;;;;;;;;;;9.00;99.90;;;;;;5077390;28;19928;-85
2023/04/18 01:09:04;;;;;;;;;;;9.00;99.90;;;;;;5076689;28;19934;-85
2023/04/18 01:11:30;;;;;;;;;;;9.00;99.90;;;;;;5060507;28;20426;-89
2023/04/18 01:13:59;;;;;;;;;;;9.10;99.90;;;;;;5095399;28;19982;-87
2023/04/18 01:16:26;;;;;;;;;;;9.10;99.90;;;;;;5078075;28;19924;-87
2023/04/18 01:18:55;;;;;;;;;;;9.10;99.90;;;;;;5065465;28;19923;-86
2023/04/18 01:21:22;;;;;;;;;;;9.10;99.90;;;;;;5081594;28;19924;-85
2023/04/18 01:23:51;;;;;;;;;;;9.10;99.90;;;;;;5076878;28;20055;-88
2023/04/18 01:26:18;;;;;;;;;;;9.00;99.90;;;;;;5044955;28;19928;-85
2023/04/18 01:28:45;;;;;;;;;;;9.00;99.90;;;;;;5061030;28;19924;-85
2023/04/18 01:31:11;;;;;;;;;;;9.00;99.90;;;;;;5062091;28;19924;-87
2023/04/18 01:33:38;;;;;;;;;;;9.10;99.90;;;;;;5045834;28;19935;-86
2023/04/18 01:36:06;;;;;;;;;;;9.20;99.90;;;;;;5062195;28;19936;-85
2023/04/18 01:38:33;;;;;;;;;;;9.10;99.90;;;;;;5060923;28;20270;-86
2023/04/18 01:41:01;;;;;;;;;;;9.10;99.90;;;;;;5081469;28;19931;-89
2023/04/18 01:43:28;;;;;;;;;;;9.10;99.90;;;;;;5063755;28;20338;-85
2023/04/18 01:45:55;;;;;;;;;;;9.10;99.90;;;;;;5077888;28;20366;-85
2023/04/18 01:48:22;;;;;;;;;;;9.00;99.90;;;;;;5080133;28;20023;-86
2023/04/18 01:50:48;;;;;;;;;;;9.00;99.90;;;;;;5064486;28;20027;-86
2023/04/18 01:56:04;;;;;;;;;;;9.00;99.90;;;;;;5098150;28;20385;-84
2023/04/18 01:58:31;;;;;;;;;;;9.00;99.90;;;;;;5080832;28;20262;-86
2023/04/18 02:01:01;;;;;;;;;;;9.00;99.90;;;;;;5080776;28;20023;-87
2023/04/18 02:03:29;;;;;;;;;;;9.00;99.90;;;;;;5080360;28;19935;-87
2023/04/18 02:05:58;;;;;;;;;;;9.00;99.90;;;;;;5064783;28;19943;-88
2023/04/18 02:08:25;;;;;;;;;;;9.00;99.90;;;;;;5063793;28;19936;-89
2023/04/18 02:10:51;;;;;;;;;;;9.00;99.90;;;;;;5064056;28;20019;-88
2023/04/18 02:16:06;;;;;;;;;;;9.00;99.90;;;;;;5097428;28;19963;-89
2023/04/18 02:18:35;;;;;;;;;;;9.00;99.90;;;;;;5080731;28;19934;-86
2023/04/18 02:21:02;;;;;;;;;;;9.10;99.90;;;;;;5080708;28;19925;-87
2023/04/18 02:23:31;;;;;;;;;;;9.10;99.90;;;;;;5063055;28;19927;-86
2023/04/18 02:25:58;;;;;;;;;;;9.10;99.90;;;;;;5080197;28;19928;-85
2023/04/18 02:28:24;;;;;;;;;;;9.00;99.90;;;;;;5078777;28;19928;-84
2023/04/18 02:30:51;;;;;;;;;;;9.00;99.90;;;;;;5079995;28;20030;-88
2023/04/18 02:33:20;;;;;;;;;;;9.00;99.90;;;;;;5098089;28;19935;-86
2023/04/18 02:35:46;;;;;;;;;;;9.10;99.90;;;;;;5097240;28;19924;-85
2023/04/18 02:38:14;;;;;;;;;;;9.10;99.90;;;;;;5097627;28;20015;-89
2023/04/18 02:40:41;;;;;;;;;;;9.10;99.90;;;;;;5080370;28;19928;-85
2023/04/18 02:43:10;;;;;;;;;;;9.10;99.90;;;;;;5079729;28;19924;-85
2023/04/18 02:45:37;;;;;;;;;;;9.10;99.90;;;;;;5079825;28;19931;-87
2023/04/18 02:48:03;;;;;;;;;;;9.10;99.90;;;;;;5079885;28;19986;-85
2023/04/18 02:50:34;;;;;;;;;;;9.10;99.90;;;;;;5079755;28;19932;-85
2023/04/18 02:56:05;;;;;;;;;;;9.10;99.90;;;;;;5078990;28;19912;-87
2023/04/18 02:58:57;;;;;;;;;;;9.20;99.90;;;;;;5083066;28;19981;-84
2023/04/18 03:01:44;;;;;;;;;;;9.20;99.90;;;;;;5081448;28;19924;-84
2023/04/18 03:07:03;;;;;;;;;;;9.20;99.90;;;;;;5079551;28;20289;-85
2023/04/18 03:09:33;;;;;;;;;;;9.20;99.90;;;;;;5078748;28;20322;-87
2023/04/18 03:14:38;;;;;;;;;;;9.20;99.90;;;;;;5079440;28;19924;-89
2023/04/18 03:17:04;;;;;;;;;;;9.20;99.90;;;;;;5078109;28;20342;-84
2023/04/18 03:19:38;;;;;;;;;;;9.10;99.90;;;;;;5063749;28;20373;-85
2023/04/18 03:25:17;;;;;;;;;;;9.10;99.90;;;;;;5063117;28;20003;-84
2023/04/18 03:27:49;;;;;;;;;;;9.10;99.90;;;;;;5058965;28;19958;-84
2023/04/18 03:30:18;;;;;;;;;;;9.10;99.90;;;;;;5058001;28;19924;-85
2023/04/18 03:36:04;;;;;;;;;;;9.10;99.90;;;;;;5058282;28;19934;-85
2023/04/18 03:38:31;;;;;;;;;;;9.10;99.90;;;;;;5058552;28;20027;-87
2023/04/18 03:40:57;;;;;;;;;;;9.10;99.90;;;;;;5058867;28;19924;-85
2023/04/18 03:46:17;;;;;;;;;;;9.00;99.90;;;;;;5058123;28;20277;-85
2023/04/18 03:48:46;;;;;;;;;;;9.00;99.90;;;;;;5057839;28;20003;-84
2023/04/18 03:51:13;;;;;;;;;;;9.00;99.90;;;;;;5058595;28;20015;-86
2023/04/18 03:53:44;;;;;;;;;;;9.00;99.90;;;;;;5042257;28;19983;-84
2023/04/18 03:56:11;;;;;;;;;;;9.00;99.90;;;;;;5059448;28;19924;-85
2023/04/18 03:58:49;;;;;;;;;;;9.00;99.90;;;;;;5059228;28;19928;-85
2023/04/18 04:01:18;;;;;;;;;;;9.00;99.90;;;;;;5058406;28;20240;-88
2023/04/18 04:03:47;;;;;;;;;;;9.00;99.90;;;;;;5057872;28;19924;-86
2023/04/18 04:06:16;;;;;;;;;;;9.00;99.90;;;;;;5058830;28;20366;-85
2023/04/18 04:08:43;;;;;;;;;;;8.90;99.90;;;;;;5057635;28;19924;-88
2023/04/18 04:11:10;;;;;;;;;;;8.80;99.90;;;;;;5058553;28;19931;-86
2023/04/18 04:13:39;;;;;;;;;;;8.80;99.90;;;;;;5058260;28;20404;-88
2023/04/18 04:16:06;;;;;;;;;;;8.80;99.90;;;;;;5040887;28;19924;-85
2023/04/18 04:18:32;;;;;;;;;;;8.70;99.90;;;;;;5058616;28;20022;-87
2023/04/18 04:21:01;;;;;;;;;;;8.70;99.90;;;;;;5058637;28;19925;-84
2023/04/18 04:26:31;;;;;;;;;;;8.60;99.90;;;;;;5058728;28;19932;-85
2023/04/18 04:29:06;;;;;;;;;;;8.40;99.90;;;;;;5057532;28;19925;-87
2023/04/18 04:31:33;;;;;;;;;;;8.30;99.90;;;;;;5057996;28;19975;-86
2023/04/18 04:34:02;;;;;;;;;;;8.20;99.90;;;;;;5076117;28;19924;-86
2023/04/18 04:36:29;;;;;;;;;;;8.10;99.90;;;;;;5056686;28;19939;-87
2023/04/18 04:38:57;;;;;;;;;;;8.10;99.90;;;;;;5058182;28;20425;-86
2023/04/18 04:41:39;;;;;;;;;;;8.00;99.90;;;;;;5057345;28;20426;-87
2023/04/18 04:44:08;;;;;;;;;;;8.00;99.90;;;;;;5058582;28;19925;-87
2023/04/18 04:46:38;;;;;;;;;;;8.00;99.90;;;;;;5041844;28;20011;-87
2023/04/18 04:49:10;;;;;;;;;;;7.90;99.90;;;;;;5057098;28;19974;-86
2023/04/18 04:51:37;;;;;;;;;;;7.90;99.90;;;;;;5074724;28;19964;-85
2023/04/18 04:56:50;;;;;;;;;;;7.80;99.90;;;;;;5056767;28;19928;-87
2023/04/18 04:59:18;;;;;;;;;;;7.80;99.90;;;;;;5057432;28;20023;-85
2023/04/18 05:01:45;;;;;;;;;;;7.80;99.90;;;;;;5056882;28;20347;-85
2023/04/18 05:07:00;;;;;;;;;;;7.90;99.90;;;;;;5074745;28;19928;-88
2023/04/18 05:09:27;;;;;;;;;;;7.90;99.90;;;;;;5057423;28;19928;-88
2023/04/18 05:11:53;;;;;;;;;;;7.80;99.90;;;;;;5057524;28;20279;-88
2023/04/18 05:14:20;;;;;;;;;;;7.80;99.90;;;;;;5057576;28;19928;-86
2023/04/18 05:16:49;;;;;;;;;;;7.90;99.90;;;;;;5073977;28;19929;-86
2023/04/18 05:19:16;;;;;;;;;;;7.90;99.90;;;;;;5057976;28;19951;-85
2023/04/18 05:21:42;;;;;;;;;;;7.90;99.90;;;;;;5056458;28;19944;-87
2023/04/18 05:26:57;;;;;;;;;;;7.90;99.90;;;;;;5077524;28;19924;-87
2023/04/18 05:29:24;;;;;;;;;;;7.80;99.90;;;;;;5076625;28;19932;-84
2023/04/18 05:31:50;;;;;;;;;;;7.80;99.90;;;;;;5095203;28;20311;-87
2023/04/18 05:36:48;;;;;;;;;;;7.90;99.90;;;;;;5076434;28;19964;-89
2023/04/18 05:39:15;;;;;;;;;;;7.90;99.90;;;;;;5095346;28;19985;-87
2023/04/18 05:41:42;;;;;;;;;;;8.00;99.90;;;;;;5076694;28;19925;-87
2023/04/18 05:44:11;;;;;;;;;;;8.00;99.90;;;;;;5060624;28;19959;-86
2023/04/18 05:46:38;;;;;;;;;;;8.00;99.90;;;;;;5077155;28;20316;-89
2023/04/18 05:49:05;;;;;;;;;;;8.00;99.90;;;;;;5094269;28;19934;-87
2023/04/18 05:51:31;;;;;;;;;;;8.00;99.90;;;;;;5077299;28;19931;-85
2023/04/18 05:53:59;;;;;;;;;;;8.00;99.90;;;;;;5060598;28;19924;-87
2023/04/18 05:56:26;;;;;;;;;;;8.00;99.90;;;;;;5094410;28;20268;-84
2023/04/18 05:58:53;;;;;;;;;;;8.00;99.90;;;;;;5060585;28;19923;-88
2023/04/18 06:01:20;;;;;;;;;;;8.00;99.90;;;;;;5077625;28;19975;-84
2023/04/18 06:06:33;;;;;;;;;;;8.00;99.90;;;;;;5080638;28;19924;-84
2023/04/18 06:09:00;;;;;;;;;;;8.00;99.90;;;;;;5098691;28;20001;-85
2023/04/18 06:11:27;;;;;;;;;;;8.10;99.90;;;;;;5065540;28;19924;-85
2023/04/18 06:13:55;;;;;;;;;;;8.10;99.90;;;;;;5086356;28;19935;-84
2023/04/18 06:16:21;;;;;;;;;;;8.10;99.90;;;;;;5083054;28;19935;-87
2023/04/18 06:18:48;;;;;;;;;;;8.10;99.90;;;;;;5065331;28;19979;-85
2023/04/18 06:21:15;;;;;;;;;;;8.20;99.90;;;;;;5081058;28;19924;-87
2023/04/18 06:26:30;;;;;;;;;;;8.20;99.90;;;;;;5060708;28;20028;-86
2023/04/18 06:28:57;;;;;;;;;;;8.20;99.90;;;;;;5059847;28;19940;-87
2023/04/18 06:31:24;;;;;;;;;;;8.20;99.90;;;;;;5060946;28;19978;-86
2023/04/18 06:33:51;;;;;;;;;;;8.10;99.90;;;;;;5060813;28;19978;-86
2023/04/18 06:36:17;;;;;;;;;;;8.10;99.90;;;;;;5059649;28;19931;-86
2023/04/18 06:38:44;;;;;;;;;;;8.00;99.90;;;;;;5061230;28;19928;-86
2023/04/18 06:41:11;;;;;;;;;;;8.10;99.90;;;;;;5092748;28;20258;-85
2023/04/18 06:43:39;;;;;;;;;;;8.10;99.90;;;;;;5080559;28;19924;-87
2023/04/18 06:46:24;;;;;;;;;;;8.10;99.90;;;;;;5098029;28;19924;-87
2023/04/18 06:48:51;;;;;;;;;;;8.20;99.90;;;;;;5063948;28;19924;-87
2023/04/18 06:51:18;;;;;;;;;;;8.20;99.90;;;;;;5080233;28;20439;-87
2023/04/18 06:53:47;;;;;;;;;;;8.30;99.90;;;;;;5098303;28;19925;-89
2023/04/18 06:56:14;;;;;;;;;;;8.30;99.90;;;;;;5063077;28;19924;-86
2023/04/18 06:58:40;;;;;;;;;;;8.30;99.90;;;;;;5079956;28;20357;-90
2023/04/18 07:01:07;;;;;;;;;;;8.40;99.90;;;;;;5084243;28;19924;-86
2023/04/18 07:03:35;;;;;;;;;;;8.40;99.90;;;;;;5097888;28;20322;-86
2023/04/18 07:06:04;;;;;;;;;;;8.50;99.90;;;;;;5097097;28;19924;-88
2023/04/18 07:08:33;;;;;;;;;;;8.60;99.90;;;;;;5097073;28;19934;-87
2023/04/18 07:11:00;;;;;;;;;;;8.70;99.90;;;;;;5079937;28;20281;-89
2023/04/18 07:13:27;;;;;;;;;;;8.80;99.90;;;;;;5079968;28;19924;-87
2023/04/18 07:15:54;;;;;;;;;;;8.90;99.90;;;;;;5077862;28;19932;-90
2023/04/18 07:18:20;;;;;;;;;;;8.90;99.90;;;;;;5064300;28;19928;-87
2023/04/18 07:21:02;;;;;;;;;;;9.00;99.90;;;;;;5065665;28;19924;-87
2023/04/18 07:26:32;;;;;;;;;;;9.20;99.90;;;;;;5080060;28;20311;-87
2023/04/18 07:28:59;;;;;;;;;;;9.20;99.90;;;;;;5064618;28;19923;-86
2023/04/18 07:31:27;;;;;;;;;;;9.40;99.90;;;;;;5080660;28;19931;-87
2023/04/18 07:33:55;;;;;;;;;;;9.50;99.90;;;;;;5064355;28;19924;-86
2023/04/18 07:36:25;;;;;;;;;;;9.60;99.90;;;;;;5081152;28;20247;-85
2023/04/18 07:38:52;;;;;;;;;;;9.70;99.90;;;;;;5081032;28;19924;-88
2023/04/18 07:41:18;;;;;;;;;;;9.70;99.90;;;;;;5080733;28;20015;-86
2023/04/18 07:43:45;;;;;;;;;;;9.80;99.90;;;;;;5079034;28;19954;-86
2023/04/18 07:46:12;;;;;;;;;;;10.10;99.90;;;;;;5079111;28;19928;-88
2023/04/18 07:48:39;;;;;;;;;;;10.10;99.90;;;;;;5081024;28;19947;-86
2023/04/18 07:51:06;;;;;;;;;;;10.20;99.90;;;;;;5073721;28;20333;-90
2023/04/18 07:53:33;;;;;;;;;;;10.00;99.90;;;;;;5083022;28;20356;-90
2023/04/18 07:56:00;;;;;;;;;;;10.10;99.90;;;;;;5063029;28;20290;-85
2023/04/18 07:58:26;;;;;;;;;;;10.10;99.90;;;;;;5079186;28;19934;-88
2023/04/18 08:00:53;;;;;;;;;;;10.10;99.90;;;;;;5080324;28;19928;-85
2023/04/18 08:03:21;;;;;;;;;;;10.30;99.90;;;;;;5061891;28;19974;-87
2023/04/18 08:05:48;;;;;;;;;;;10.50;99.90;;;;;;5061857;28;19924;-85
2023/04/18 08:08:15;;;;;;;;;;;10.70;99.90;;;;;;5077656;28;20320;-84
2023/04/18 08:10:42;;;;;;;;;;;10.90;99.90;;;;;;5078705;28;19924;-87
2023/04/18 08:13:12;;;;;;;;;;;11.00;99.90;;;;;;5061654;28;20022;-84
2023/04/18 08:15:38;;;;;;;;;;;11.00;99.90;;;;;;5077120;28;20369;-88
2023/04/18 08:18:05;;;;;;;;;;;11.10;99.90;;;;;;5078507;28;19924;-86
2023/04/18 08:20:33;;;;;;;;;;;11.30;99.90;;;;;;5095172;28;19974;-83
2023/04/18 08:25:35;;;;;;;;;;;11.30;99.90;;;;;;5060419;28;19960;-85
2023/04/18 08:28:02;;;;;;;;;;;11.60;99.90;;;;;;5077685;28;19935;-83
2023/04/18 08:30:29;;;;;;;;;;;11.70;99.90;;;;;;5089892;28;20027;-89
2023/04/18 08:32:57;;;;;;;;;;;11.70;99.90;;;;;;5056617;28;20346;-84
2023/04/18 08:35:24;;;;;;;;;;;11.80;99.90;;;;;;5074322;28;19929;-84
2023/04/18 08:37:51;;;;;;;;;;;11.90;99.90;;;;;;5078204;28;19924;-84
2023/04/18 08:40:17;;;;;;;;;;;11.80;99.90;;;;;;5061642;28;19987;-84
2023/04/18 08:42:44;;;;;;;;;;;11.80;99.90;;;;;;5060436;28;19924;-83
2023/04/18 08:45:12;;;;;;;;;;;12.00;99.90;;;;;;5076725;28;19925;-83
2023/04/18 08:58:26;;;;;;;;;;;12.20;99.90;;;;;;5153797;27;20247;-84
2023/04/18 09:00:53;;;;;;;;;;;12.80;99.90;;;;;;5152770;27;20255;-85
2023/04/18 09:03:21;;;;;;;;;;;12.80;99.90;;;;;;5151745;27;19931;-85
2023/04/18 09:05:47;;;;;;;;;;;12.40;99.90;;;;;;5152750;27;19934;-85
2023/04/18 09:08:14;;;;;;;;;;;12.20;99.90;;;;;;5126744;28;20359;-84
2023/04/18 09:10:41;;;;;;;;;;;12.00;99.90;;;;;;5131911;28;19959;-86
2023/04/18 09:13:12;;;;;;;;;;;11.90;99.90;;;;;;5133131;27;19930;-84
2023/04/18 09:15:39;;;;;;;;;;;11.80;99.90;;;;;;5131341;28;19924;-84
2023/04/18 09:18:06;;;;;;;;;;;11.80;99.90;;;;;;5131851;27;20010;-84
2023/04/18 09:20:43;;;;;;;;;;;11.80;99.90;;;;;;5114875;27;19934;-84
2023/04/18 09:23:13;;;;;;;;;;;11.80;99.90;;;;;;5134239;27;20430;-85
2023/04/18 09:25:40;;;;;;;;;;;11.60;99.90;;;;;;5151863;27;19934;-85
2023/04/18 09:28:10;;;;;;;;;;;11.50;99.90;;;;;;5151629;27;19924;-85
2023/04/18 09:30:38;;;;;;;;;;;11.50;99.90;;;;;;5151817;27;20022;-84
2023/04/18 09:33:08;;;;;;;;;;;11.50;99.90;;;;;;5135314;27;20333;-86
2023/04/18 09:35:35;;;;;;;;;;;11.40;99.90;;;;;;5134607;27;20328;-86
2023/04/18 09:38:02;;;;;;;;;;;11.50;99.90;;;;;;5152089;27;19923;-85
2023/04/18 09:40:29;;;;;;;;;;;11.40;99.90;;;;;;5151980;27;19954;-86
2023/04/18 09:45:42;;;;;;;;;;;11.30;99.90;;;;;;5144721;27;20351;-87
2023/04/18 09:48:15;;;;;;;;;;;11.10;99.90;;;;;;5153242;27;19931;-93
2023/04/18 10:05:11;;;;;;;;;;;10.90;99.90;;;;;;5039972;28;19993;-90
2023/04/18 10:07:37;;;;;;;;;;;10.90;99.90;;;;;;5059944;28;19924;-90
2023/04/18 10:10:04;;;;;;;;;;;10.90;99.90;;;;;;5059422;28;20039;-88
2023/04/18 10:12:31;;;;;;;;;;;11.00;99.90;;;;;;5060615;28;20026;-91
2023/04/18 10:14:58;;;;;;;;;;;11.20;99.90;;;;;;5042769;28;19929;-88
2023/04/18 10:17:25;;;;;;;;;;;11.20;99.90;;;;;;5068641;28;19958;-91
2023/04/18 10:19:55;;;;;;;;;;;11.30;99.90;;;;;;5074786;28;20387;-91
2023/04/18 10:29:38;;;;;;;;;;;11.50;99.90;;;;;;5138926;27;19938;-90
2023/04/18 10:35:39;;;;;;;;;;;11.60;99.90;;;;;;5138654;27;19998;-88
2023/04/18 10:38:07;;;;;;;;;;;11.50;99.90;;;;;;5138363;27;19924;-91
2023/04/18 10:40:34;;;;;;;;;;;11.40;99.90;;;;;;5138374;27;19977;-91
2023/04/18 10:43:01;;;;;;;;;;;11.40;99.90;;;;;;5138126;27;20351;-89
2023/04/18 10:45:30;;;;;;;;;;;11.40;99.90;;;;;;5122157;27;19924;-88
2023/04/18 10:47:56;;;;;;;;;;;11.50;99.90;;;;;;5117201;28;20031;-88
2023/04/18 10:50:23;;;;;;;;;;;11.40;99.90;;;;;;5101727;27;19985;-85
2023/04/18 10:52:51;;;;;;;;;;;11.40;99.90;;;;;;5129721;27;19927;-86
2023/04/18 10:55:18;;;;;;;;;;;11.40;99.90;;;;;;5121290;27;19923;-88
2023/04/18 10:57:45;;;;;;;;;;;11.30;99.90;;;;;;5120111;28;20347;-87
2023/04/18 11:00:12;;;;;;;;;;;11.30;99.90;;;;;;5118741;28;19946;-86
2023/04/18 11:02:39;;;;;;;;;;;11.30;99.90;;;;;;5114976;27;20018;-87
2023/04/18 11:05:06;;;;;;;;;;;11.30;99.90;;;;;;5099916;28;20023;-89
2023/04/18 11:07:33;;;;;;;;;;;11.30;99.90;;;;;;5117917;28;19935;-88
2023/04/18 11:10:00;;;;;;;;;;;11.30;99.90;;;;;;5103918;27;20275;-86
2023/04/18 11:12:29;;;;;;;;;;;11.30;99.90;;;;;;5129686;27;19937;-87
2023/04/18 11:14:56;;;;;;;;;;;11.30;99.90;;;;;;5109803;27;20318;-88
2023/04/18 11:17:23;;;;;;;;;;;11.30;99.90;;;;;;5127410;27;20259;-87
2023/04/18 11:19:50;;;;;;;;;;;11.20;99.90;;;;;;5109508;27;20363;-88
2023/04/18 11:22:18;;;;;;;;;;;11.20;99.90;;;;;;5109822;27;19923;-85
2023/04/18 11:24:45;;;;;;;;;;;11.30;99.90;;;;;;5136287;27;19924;-90
2023/04/18 11:27:11;;;;;;;;;;;11.50;99.90;;;;;;5119224;27;20355;-86
2023/04/18 11:29:38;;;;;;;;;;;11.80;99.90;;;;;;5135929;27;20266;-87
2023/04/18 11:32:07;;;;;;;;;;;11.90;99.90;;;;;;5137328;27;19923;-86
2023/04/18 11:34:37;;;;;;;;;;;12.00;99.90;;;;;;5119717;27;19980;-83
2023/04/18 11:37:04;;;;;;;;;;;11.90;99.90;;;;;;5132679;27;20009;-86
2023/04/18 11:39:30;;;;;;;;;;;11.80;99.90;;;;;;5119269;27;20021;-87
2023/04/18 11:48:22;;;;;;;;;;;11.60;99.90;;;;;;5120707;22;20922;-86
2023/04/18 11:50:51;;;;;;;;;;;11.60;99.90;;;;;;4987247;28;19926;-88
2023/04/18 11:53:18;;;;;;;;;;;11.50;99.90;;;;;;4976583;28;20405;-85
2023/04/18 11:55:45;;;;;;;;;;;11.50;99.90;;;;;;4976316;28;19937;-84
2023/04/18 12:00:57;;;;;;;;;;;11.60;99.90;;;;;;4974994;28;19969;-85
2023/04/18 12:03:24;;;;;;;;;;;11.60;99.90;;;;;;4976161;28;19930;-85
2023/04/18 12:05:51;;;;;;;;;;;11.60;99.90;;;;;;4975527;28;19926;-85
2023/04/18 12:08:20;;;;;;;;;;;11.60;99.90;;;;;;4974450;28;19930;-86
2023/04/18 12:10:46;;;;;;;;;;;11.50;99.90;;;;;;4976784;28;19926;-86
2023/04/18 12:13:13;;;;;;;;;;;11.40;99.90;;;;;;4973003;28;19949;-84
2023/04/18 12:15:40;;;;;;;;;;;11.30;99.90;;;;;;4974404;28;20251;-86
2023/04/18 12:18:09;;;;;;;;;;;11.30;99.90;;;;;;4975394;28;19937;-85
2023/04/18 12:20:38;;;;;;;;;;;11.30;99.90;;;;;;4974480;28;19926;-84
2023/04/18 12:23:05;;;;;;;;;;;11.20;99.90;;;;;;4975834;28;19940;-87
2023/04/18 12:25:32;;;;;;;;;;;11.10;99.90;;;;;;4975531;28;19980;-87
2023/04/18 12:30:49;;;;;;;;;;;11.00;99.90;;;;;;4976661;28;20255;-84
2023/04/18 12:33:15;;;;;;;;;;;10.90;99.90;;;;;;4974909;28;19930;-84
2023/04/18 12:35:42;;;;;;;;;;;10.90;99.90;;;;;;4975021;28;19936;-85
2023/04/18 12:38:09;;;;;;;;;;;11.00;99.90;;;;;;4975212;28;20365;-84
2023/04/18 12:40:35;;;;;;;;;;;11.10;99.90;;;;;;4974998;28;20334;-84
2023/04/18 12:43:02;;;;;;;;;;;11.30;99.90;;;;;;4975006;28;19966;-84
2023/04/18 12:45:29;;;;;;;;;;;11.20;99.90;;;;;;4975168;28;20277;-85
2023/04/18 12:47:57;;;;;;;;;;;11.20;99.90;;;;;;4974970;28;19926;-84
2023/04/18 12:50:24;;;;;;;;;;;11.00;99.90;;;;;;4974896;28;19926;-85
2023/04/18 12:52:51;;;;;;;;;;;10.80;99.90;;;;;;4975035;28;19980;-84
2023/04/18 12:55:18;;;;;;;;;;;10.70;99.90;;;;;;4974598;28;20001;-86
2023/04/18 12:57:44;;;;;;;;;;;10.60;99.90;;;;;;4958489;28;19930;-85
2023/04/18 13:00:12;;;;;;;;;;;10.40;99.90;;;;;;4974531;28;19930;-85
2023/04/18 13:02:39;;;;;;;;;;;10.40;99.90;;;;;;4975383;28;19957;-87
2023/04/18 13:05:06;;;;;;;;;;;10.40;99.90;;;;;;4975121;28;20187;-85
2023/04/18 13:07:33;;;;;;;;;;;10.40;99.90;;;;;;4974094;28;19997;-85
2023/04/18 13:09:59;;;;;;;;;;;10.40;99.90;;;;;;4979946;28;20083;-82
2023/04/18 13:12:28;;;;;;;;;;;10.40;99.90;;;;;;4981336;28;19934;-82
2023/04/18 13:14:55;;;;;;;;;;;10.30;99.90;;;;;;4983125;28;19925;-86
2023/04/18 13:17:23;;;;;;;;;;;10.40;99.90;;;;;;4983073;28;19926;-83
2023/04/18 13:19:50;;;;;;;;;;;10.30;99.90;;;;;;4991438;28;19930;-84
2023/04/18 13:22:17;;;;;;;;;;;10.30;99.90;;;;;;4994311;28;20277;-84
2023/04/18 13:24:44;;;;;;;;;;;10.30;99.90;;;;;;4940017;29;20339;-84
2023/04/18 13:27:13;;;;;;;;;;;10.40;99.90;;;;;;4942459;28;19936;-85
2023/04/18 13:29:40;;;;;;;;;;;10.40;99.90;;;;;;4975474;28;20265;-84
2023/04/18 13:32:07;;;;;;;;;;;10.50;99.90;;;;;;4974791;28;19961;-83
2023/04/18 13:34:34;;;;;;;;;;;10.50;99.90;;;;;;4962033;28;20361;-89
2023/04/18 13:37:08;;;;;;;;;;;10.50;99.90;;;;;;4980478;28;19932;-87
2023/04/18 13:39:35;;;;;;;;;;;10.40;99.90;;;;;;4996387;28;20032;-83
2023/04/18 13:42:02;;;;;;;;;;;10.40;99.90;;;;;;4986682;28;20417;-85
2023/04/18 13:44:29;;;;;;;;;;;10.50;99.90;;;;;;4986053;28;20264;-83
2023/04/18 13:46:56;;;;;;;;;;;10.40;99.90;;;;;;4984142;28;20425;-83
2023/04/18 13:49:22;;;;;;;;;;;10.50;99.90;;;;;;4991321;28;19926;-84
2023/04/18 13:51:52;;;;;;;;;;;10.50;99.90;;;;;;4994636;28;19977;-85
2023/04/18 13:54:20;;;;;;;;;;;10.60;99.90;;;;;;4988656;28;19988;-84
2023/04/18 13:56:47;;;;;;;;;;;10.70;99.90;;;;;;4988878;28;20033;-86
2023/04/18 13:59:15;;;;;;;;;;;10.70;99.90;;;;;;4980729;28;19936;-86
2023/04/18 14:01:42;;;;;;;;;;;10.70;99.90;;;;;;4982559;28;19930;-84
2023/04/18 14:04:09;;;;;;;;;;;10.70;99.90;;;;;;4984516;28;19978;-85
2023/04/18 14:06:37;;;;;;;;;;;10.60;99.90;;;;;;4988197;28;19952;-86
2023/04/18 14:09:03;;;;;;;;;;;10.60;99.90;;;;;;4995484;28;19929;-85
2023/04/18 14:11:30;;;;;;;;;;;10.60;99.90;;;;;;4994765;28;19929;-87
2023/04/18 14:13:57;;;;;;;;;;;10.60;99.90;;;;;;4994347;28;19929;-85
2023/04/18 14:16:23;;;;;;;;;;;10.50;99.90;;;;;;4979332;28;19992;-86
2023/04/18 14:18:50;;;;;;;;;;;10.60;99.90;;;;;;4994666;28;19929;-86
2023/04/18 14:21:17;;;;;;;;;;;10.60;99.90;;;;;;4994066;28;19930;-86
2023/04/18 14:23:44;;;;;;;;;;;10.70;99.90;;;;;;4994404;28;19930;-87
2023/04/18 14:26:10;;;;;;;;;;;10.70;99.90;;;;;;4994455;28;19930;-86
2023/04/18 14:28:37;;;;;;;;;;;10.60;99.90;;;;;;4976877;28;19933;-85
2023/04/18 14:31:05;;;;;;;;;;;10.60;99.90;;;;;;4994708;28;19941;-88
2023/04/18 14:33:33;;;;;;;;;;;10.50;99.90;;;;;;4985470;28;20261;-88
2023/04/18 14:35:59;;;;;;;;;;;10.60;99.90;;;;;;4984874;28;19941;-86
2023/04/18 14:38:26;;;;;;;;;;;10.60;99.90;;;;;;4981876;28;19946;-87
2023/04/18 14:40:53;;;;;;;;;;;10.60;99.90;;;;;;4982571;28;20262;-86
2023/04/18 14:43:19;;;;;;;;;;;10.50;99.90;;;;;;4984942;28;19930;-86
2023/04/18 14:45:46;;;;;;;;;;;10.60;99.90;;;;;;4974627;28;19946;-86
2023/04/18 14:48:13;;;;;;;;;;;10.80;99.90;;;;;;4952780;28;19958;-85
2023/04/18 14:50:39;;;;;;;;;;;10.90;99.90;;;;;;4954988;29;20025;-86
2023/04/18 14:53:06;;;;;;;;;;;10.90;99.90;;;;;;4969861;28;20383;-87
2023/04/18 14:55:33;;;;;;;;;;;10.90;99.90;;;;;;4954609;28;19941;-84
2023/04/18 14:58:00;;;;;;;;;;;10.90;99.90;;;;;;4955845;29;20017;-84
2023/04/18 15:00:27;;;;;;;;;;;11.00;99.90;;;;;;4967869;28;19931;-83
2023/04/18 15:02:53;;;;;;;;;;;11.00;99.90;;;;;;4968440;28;19930;-85
2023/04/18 15:05:22;;;;;;;;;;;10.90;99.90;;;;;;4960492;28;19973;-82
2023/04/18 15:07:50;;;;;;;;;;;11.00;99.90;;;;;;4976358;28;20267;-83
2023/04/18 15:10:17;;;;;;;;;;;10.90;99.90;;;;;;4976204;28;19949;-84
2023/04/18 15:12:45;;;;;;;;;;;10.70;99.90;;;;;;4976572;28;19938;-84
2023/04/18 15:15:12;;;;;;;;;;;10.60;99.90;;;;;;4975664;28;20398;-85
2023/04/18 15:17:39;;;;;;;;;;;10.50;99.90;;;;;;4975746;28;19936;-85
2023/04/18 15:20:06;;;;;;;;;;;10.50;99.90;;;;;;4975353;28;20278;-86
2023/04/18 15:22:32;;;;;;;;;;;10.50;99.90;;;;;;4977427;28;19988;-86
2023/04/18 15:24:59;;;;;;;;;;;10.50;99.90;;;;;;4975670;28;19996;-83
2023/04/18 15:27:27;;;;;;;;;;;10.40;99.90;;;;;;4974843;28;19930;-82
2023/04/18 15:29:53;;;;;;;;;;;10.40;99.90;;;;;;4976023;28;20277;-83
2023/04/18 15:32:20;;;;;;;;;;;10.40;99.90;;;;;;4975855;28;20025;-84
2023/04/18 15:34:47;;;;;;;;;;;10.40;99.90;;;;;;4958928;28;20358;-87
2023/04/18 15:37:14;;;;;;;;;;;10.30;99.90;;;;;;4959703;28;20453;-86
2023/04/18 15:39:41;;;;;;;;;;;10.20;99.90;;;;;;4974766;28;19926;-86
2023/04/18 15:42:07;;;;;;;;;;;10.30;99.90;;;;;;4975811;28;19936;-83
2023/04/18 15:44:34;;;;;;;;;;;10.20;99.90;;;;;;4977063;28;19934;-85
2023/04/18 15:47:01;;;;;;;;;;;10.30;99.90;;;;;;4974231;28;19926;-87
2023/04/18 15:49:30;;;;;;;;;;;10.40;99.90;;;;;;4975870;28;20324;-86
2023/04/18 15:51:56;;;;;;;;;;;10.50;99.90;;;;;;4975737;28;19926;-85
2023/04/18 15:54:23;;;;;;;;;;;10.50;99.90;;;;;;4974276;28;19936;-83
2023/04/18 15:56:50;;;;;;;;;;;10.50;99.90;;;;;;4974727;28;19961;-85
2023/04/18 15:59:17;;;;;;;;;;;10.50;99.90;;;;;;4975776;28;19926;-83
2023/04/18 16:01:44;;;;;;;;;;;10.50;99.90;;;;;;4974505;28;19934;-85
2023/04/18 16:04:11;;;;;;;;;;;10.50;99.90;;;;;;4972736;28;19937;-86
2023/04/18 16:06:39;;;;;;;;;;;10.50;99.90;;;;;;4957517;28;19933;-86
2023/04/18 16:09:06;;;;;;;;;;;10.60;99.90;;;;;;4969014;28;19930;-84
2023/04/18 16:11:32;;;;;;;;;;;10.70;99.90;;;;;;4989213;28;19988;-86